< Typhoon 201906 2019 Season Typhoon 201908 >
Typhoon 201907 (WIPHA)
General InformationTrack Information on Google MapsDetailed Wind InformationForecast History on Google MapsAccess Analytics MapList of All Images || NewsDisaster Info.WeblogTrackbackTyphoon FrontTwiphoonTyphoon Now!Typhoon ImaginationJMA Disaster Info. XMLResourceGoogle EarthGE AnimationAtom FeedGeoJSON
Detalied Best Track (Time Zone = UTC)
Year Month Day Hour Lat. Long. Pressure (hPa) Wind (kt) Class Image Chart
2019 7 30 00 17.1 116.0 1002 0 2 Image Chart
2019 7 30 06 17.6 115.4 998 0 2 Image Chart
2019 7 30 12 18.0 114.8 996 0 2 Image Chart
2019 7 30 18 18.4 114.2 994 35 3 Image Chart
2019 7 31 00 18.8 113.7 994 35 3 Image Chart
2019 7 31 06 19.2 112.9 992 35 3 Image Chart
2019 7 31 12 19.5 112.2 992 35 3 Image Chart
2019 7 31 18 20.1 111.4 990 40 3 Image Chart
2019 8 1 00 20.4 110.8 990 40 3 Image Chart
2019 8 1 06 21.0 110.5 990 40 3 Image Chart
2019 8 1 12 21.4 110.2 990 40 3 Image Chart
2019 8 1 18 21.2 109.4 990 40 3 Image Chart
2019 8 2 00 21.2 109.1 990 40 3 Image Chart
2019 8 2 06 21.1 109.0 985 45 3 Image Chart
2019 8 2 12 21.6 108.2 990 40 3 Image Chart
2019 8 2 18 21.5 107.3 992 35 3 Image Chart
2019 8 3 00 21.2 106.5 992 35 3 Image Chart
2019 8 3 06 20.8 106.2 992 35 3 Image Chart
2019 8 3 12 20.2 105.4 994 0 2 Image Chart
2019 8 3 18 19.7 104.4 996 0 2 Image Chart
2019 8 4 00 20.7 102.8 998 0 2 Image Chart
2019 8 4 06 20.5 102.1 998 0 2 Image Chart
Japan Meteorological Agency Best Track Data | Correction Date : 2019-09-26
< Typhoon 201906 2019 Season Typhoon 201908 >

Help